Time;durP1;ratioP1;P1;durP2;ratioP2;P2;SDS_P1;SDS_P2;PMS_P1;PMS_P2;Temp;Humidity;BMP_temperature;BMP_pressure;BME280_temperature;BME280_humidity;BME280_pressure;Samples;Min_cycle;Max_cycle;Signal;HPM_P1;HPM_P2
2023/08/30 00:01:13;;;;;;;21.00;12.73;;;15.50;99.90;;;14.54;100.00;100376.13;4950295;28;20520;-77
2023/08/30 00:03:42;;;;;;;26.63;14.02;;;15.50;99.90;;;14.51;100.00;100373.72;4965867;28;20552;-77
2023/08/30 00:06:08;;;;;;;25.17;12.20;;;15.50;99.90;;;14.51;100.00;100372.84;4967129;28;20030;-78
2023/08/30 00:08:35;;;;;;;23.05;12.30;;;15.50;99.90;;;14.48;100.00;100368.59;4967822;28;20038;-76
2023/08/30 00:11:01;;;;;;;29.98;12.35;;;15.50;99.90;;;14.46;100.00;100365.22;4949969;28;20026;-78
2023/08/30 00:13:32;;;;;;;24.70;12.80;;;15.50;99.90;;;14.46;100.00;100369.66;4949882;28;20023;-76
2023/08/30 00:15:59;;;;;;;17.20;11.32;;;15.40;99.90;;;14.45;100.00;100368.81;4968368;28;20022;-77
2023/08/30 00:18:25;;;;;;;19.73;11.90;;;15.40;99.90;;;14.44;100.00;100369.75;4967989;28;20033;-77
2023/08/30 00:20:50;;;;;;;15.65;10.88;;;15.40;99.90;;;14.45;100.00;100370.59;4984414;28;20113;-78
2023/08/30 00:23:16;;;;;;;19.73;12.30;;;15.40;99.90;;;14.41;100.00;100370.00;4965822;28;20049;-77
2023/08/30 00:25:42;;;;;;;27.50;11.98;;;15.40;99.90;;;14.38;100.00;100364.88;4964970;28;20022;-78
2023/08/30 00:28:08;;;;;;;22.10;12.30;;;15.40;99.90;;;14.34;100.00;100368.69;4970982;28;20058;-77
2023/08/30 00:30:34;;;;;;;22.25;12.90;;;15.30;99.90;;;14.28;100.00;100355.88;4983132;28;20158;-76
2023/08/30 00:32:59;;;;;;;29.38;14.25;;;15.30;99.90;;;14.24;100.00;100354.41;4964745;28;20756;-78
2023/08/30 00:35:25;;;;;;;20.13;13.40;;;15.30;99.90;;;14.24;100.00;100351.75;4962624;28;20035;-77
2023/08/30 00:37:51;;;;;;;26.50;13.68;;;15.20;99.90;;;14.20;100.00;100347.63;4964448;28;20106;-77
2023/08/30 00:40:17;;;;;;;29.00;13.80;;;15.30;99.90;;;14.19;100.00;100332.66;4965124;28;20072;-77
2023/08/30 00:42:43;;;;;;;30.63;13.27;;;15.20;99.90;;;14.19;100.00;100325.59;4962558;28;20038;-78
2023/08/30 00:45:09;;;;;;;24.98;13.18;;;15.20;99.90;;;14.15;100.00;100321.44;4963633;28;20154;-77
2023/08/30 00:47:36;;;;;;;38.13;16.08;;;15.20;99.90;;;14.16;100.00;100323.97;4954140;28;20412;-77
2023/08/30 00:50:02;;;;;;;32.08;16.27;;;15.20;99.90;;;14.17;100.00;100324.84;4948617;28;20044;-78
2023/08/30 00:52:28;;;;;;;31.48;14.43;;;15.20;99.90;;;14.16;100.00;100326.63;4952611;28;20109;-77
2023/08/30 00:54:54;;;;;;;33.92;16.42;;;15.10;99.90;;;14.14;100.00;100325.88;4952488;28;20031;-77
2023/08/30 00:57:20;;;;;;;34.13;15.00;;;15.10;99.90;;;14.11;100.00;100325.25;4962387;28;20062;-78
2023/08/30 00:59:45;;;;;;;21.77;11.85;;;15.10;99.90;;;14.09;100.00;100330.66;4963491;28;20042;-76
2023/08/30 01:02:12;;;;;;;19.98;11.13;;;15.10;99.90;;;14.06;100.00;100333.50;4960768;28;20034;-77
2023/08/30 01:04:38;;;;;;;25.38;11.23;;;15.00;99.90;;;14.04;100.00;100338.06;4963723;28;20030;-77
2023/08/30 01:07:03;;;;;;;21.40;13.00;;;15.00;99.90;;;13.99;100.00;100337.50;4963892;28;20038;-78
2023/08/30 01:09:29;;;;;;;25.90;13.13;;;15.00;99.90;;;13.96;100.00;100345.66;4966096;28;20030;-77
2023/08/30 01:12:23;;;;;;;19.60;12.43;;;14.90;99.90;;;13.85;100.00;100345.53;4964858;28;20444;-78
2023/08/30 01:15:00;;;;;;;22.10;12.70;;;14.90;99.90;;;13.76;100.00;100352.28;4964687;28;20131;-78
2023/08/30 01:17:27;;;;;;;22.95;11.88;;;14.80;99.90;;;13.71;100.00;100344.66;4983129;28;20054;-77
2023/08/30 01:20:10;;;;;;;25.33;14.88;;;14.80;99.90;;;13.72;100.00;100351.63;4953903;28;20030;-77
2023/08/30 01:23:11;;;;;;;30.70;12.85;;;14.80;99.90;;;13.78;100.00;100345.09;4973529;28;20744;-78
2023/08/30 01:26:12;;;;;;;22.33;11.25;;;14.80;99.90;;;13.78;100.00;100350.38;4963140;28;20449;-78
2023/08/30 01:28:39;;;;;;;16.45;10.88;;;14.80;99.90;;;13.78;100.00;100346.88;4967200;28;20113;-78
2023/08/30 01:31:09;;;;;;;31.23;14.77;;;14.80;99.90;;;13.79;100.00;100335.34;4953310;28;20050;-77
2023/08/30 01:33:36;;;;;;;46.65;16.67;;;14.80;99.90;;;13.77;100.00;100339.91;4949188;28;20030;-78
2023/08/30 01:36:03;;;;;;;37.75;17.27;;;14.80;99.90;;;13.77;100.00;100338.09;4978486;28;20034;-77
2023/08/30 01:38:31;;;;;;;34.72;16.27;;;14.80;99.90;;;13.74;100.00;100333.84;4963846;28;20037;-77
2023/08/30 01:40:59;;;;;;;39.33;16.90;;;14.70;99.90;;;13.73;100.00;100339.25;4964945;28;20026;-76
2023/08/30 01:43:30;;;;;;;26.73;15.00;;;14.70;99.90;;;13.73;100.00;100334.78;4966676;28;20033;-76
2023/08/30 01:45:58;;;;;;;19.55;11.95;;;14.70;99.90;;;13.73;100.00;100329.50;4969374;28;20058;-75
2023/08/30 01:48:26;;;;;;;37.15;16.95;;;14.70;99.90;;;13.73;100.00;100333.94;4967938;28;20023;-77
2023/08/30 01:50:51;;;;;;;26.02;15.20;;;14.70;99.90;;;13.71;100.00;100334.06;4967059;28;20026;-77
2023/08/30 01:53:18;;;;;;;22.25;13.63;;;14.70;99.90;;;13.72;100.00;100334.91;4965612;28;20033;-75
2023/08/30 01:55:43;;;;;;;25.92;14.70;;;14.70;99.90;;;13.71;100.00;100342.00;4959202;28;20047;-77
2023/08/30 01:58:10;;;;;;;31.77;15.70;;;14.70;99.90;;;13.70;100.00;100347.38;4965999;28;20050;-78
2023/08/30 02:00:36;;;;;;;29.08;14.70;;;14.70;99.90;;;13.72;100.00;100358.72;4966017;28;20038;-76
2023/08/30 02:03:13;;;;;;;23.35;12.45;;;14.70;99.90;;;13.70;100.00;100361.47;4967786;28;20479;-77
2023/08/30 02:06:08;;;;;;;26.33;14.10;;;14.70;99.90;;;13.72;100.00;100361.38;4957320;28;20023;-77
2023/08/30 02:09:08;;;;;;;30.65;14.77;;;14.70;99.90;;;13.73;100.00;100368.34;4984551;28;20489;-77
2023/08/30 02:11:36;;;;;;;21.13;12.07;;;14.80;99.90;;;13.76;100.00;100368.16;4967054;28;20066;-76
2023/08/30 02:14:06;;;;;;;20.30;13.93;;;14.80;99.90;;;13.77;100.00;100361.91;4967407;28;20420;-77
2023/08/30 02:16:33;;;;;;;21.55;13.07;;;14.80;99.90;;;13.78;100.00;100358.31;4985235;28;20031;-77
2023/08/30 02:18:59;;;;;;;26.40;12.27;;;14.80;99.90;;;13.77;100.00;100358.41;4963051;28;20038;-77
2023/08/30 02:21:26;;;;;;;26.83;12.98;;;14.70;99.90;;;13.75;100.00;100356.69;4966361;28;20058;-78
2023/08/30 02:23:52;;;;;;;17.88;12.25;;;14.80;99.90;;;13.77;100.00;100361.91;4966384;28;20123;-77
2023/08/30 02:26:21;;;;;;;22.65;12.70;;;14.80;99.90;;;13.79;100.00;100364.47;4966228;28;20065;-77
2023/08/30 02:28:47;;;;;;;35.65;15.80;;;14.80;99.90;;;13.79;100.00;100357.34;4967752;28;20018;-76
2023/08/30 02:31:13;;;;;;;21.17;10.98;;;14.70;99.90;;;13.78;100.00;100355.69;4963477;28;20033;-78
2023/08/30 02:33:39;;;;;;;21.48;12.13;;;14.80;99.90;;;13.77;100.00;100355.78;4966635;28;20121;-77
2023/08/30 02:36:05;;;;;;;21.20;12.50;;;14.70;99.90;;;13.74;100.00;100349.72;4967126;28;20121;-77
2023/08/30 02:38:31;;;;;;;17.60;12.13;;;14.70;99.90;;;13.71;100.00;100351.72;4966324;28;20057;-77
2023/08/30 02:40:56;;;;;;;27.48;13.40;;;14.70;99.90;;;13.69;100.00;100343.91;4966159;28;20126;-77
2023/08/30 02:43:22;;;;;;;21.80;13.38;;;14.70;99.90;;;13.62;100.00;100336.47;4965097;28;20109;-77
2023/08/30 02:45:56;;;;;;;34.95;15.85;;;14.60;99.90;;;13.53;100.00;100332.63;4967630;28;20031;-77
2023/08/30 02:48:22;;;;;;;31.83;15.93;;;14.60;99.90;;;13.41;100.00;100325.47;4964857;28;20037;-78
2023/08/30 02:50:47;;;;;;;30.08;16.10;;;14.50;99.90;;;13.34;100.00;100325.88;4967988;28;20026;-76
2023/08/30 02:53:13;;;;;;;22.80;13.23;;;14.40;99.90;;;13.26;100.00;100317.56;4953600;28;20141;-77
2023/08/30 02:55:39;;;;;;;21.75;13.38;;;14.30;99.90;;;13.20;100.00;100317.13;4963835;28;20721;-78
2023/08/30 02:58:05;;;;;;;23.88;12.70;;;14.20;99.90;;;13.09;100.00;100315.16;4965640;28;20395;-76
2023/08/30 03:00:30;;;;;;;22.90;13.50;;;14.20;99.90;;;13.05;100.00;100309.19;4965551;28;20117;-76
2023/08/30 03:02:56;;;;;;;23.70;13.13;;;14.20;99.90;;;12.99;100.00;100314.03;4947974;28;20049;-77
2023/08/30 03:05:22;;;;;;;22.73;13.60;;;14.10;99.90;;;12.96;100.00;100324.78;4965189;28;20066;-78
2023/08/30 03:07:48;;;;;;;28.83;13.90;;;14.10;99.90;;;12.96;100.00;100308.91;4963864;28;20463;-76
2023/08/30 03:10:13;;;;;;;28.70;15.15;;;14.10;99.90;;;12.93;100.00;100315.25;4964707;28;20050;-75
2023/08/30 03:12:39;;;;;;;24.65;15.15;;;14.10;99.90;;;12.95;100.00;100318.66;4964770;28;20476;-77
2023/08/30 03:15:06;;;;;;;31.27;16.35;;;14.10;99.90;;;12.96;100.00;100324.78;4964653;28;20118;-76
2023/08/30 03:17:31;;;;;;;29.38;16.10;;;14.00;99.90;;;12.96;100.00;100322.13;4965146;28;20035;-77
2023/08/30 03:20:00;;;;;;;30.05;16.02;;;14.00;99.90;;;12.95;100.00;100321.28;4954985;28;20405;-77
2023/08/30 03:22:25;;;;;;;30.50;16.73;;;14.00;99.90;;;12.91;100.00;100320.66;4963811;28;20038;-76
2023/08/30 03:24:51;;;;;;;27.02;15.57;;;13.90;99.90;;;12.89;100.00;100319.03;4983283;28;20038;-77
2023/08/30 03:27:19;;;;;;;31.75;16.45;;;13.90;99.90;;;12.85;100.00;100318.41;4963906;28;20428;-76
2023/08/30 03:29:45;;;;;;;30.40;16.33;;;13.90;99.90;;;12.83;100.00;100327.34;4964630;28;20113;-77
2023/08/30 03:32:17;;;;;;;32.53;17.30;;;13.90;99.90;;;12.79;100.00;100318.78;4964914;28;20114;-77
2023/08/30 03:34:46;;;;;;;31.23;16.73;;;13.90;99.90;;;12.78;100.00;100308.28;4965113;28;20042;-78
2023/08/30 03:37:17;;;;;;;30.15;16.80;;;13.90;99.90;;;12.80;100.00;100306.41;4966029;28;20031;-77
2023/08/30 03:39:43;;;;;;;31.20;18.15;;;13.90;99.90;;;12.79;100.00;100305.56;4963058;28;20501;-76
2023/08/30 03:42:09;;;;;;;31.08;17.33;;;13.90;99.90;;;12.83;100.00;100300.91;4964529;28;20031;-76
2023/08/30 03:44:37;;;;;;;28.65;16.88;;;13.90;99.90;;;12.84;100.00;100294.69;4981788;28;20039;-75
2023/08/30 03:47:03;;;;;;;44.88;19.38;;;13.90;99.90;;;12.83;100.00;100285.94;4951831;28;20046;-77
2023/08/30 03:49:29;;;;;;;30.70;17.23;;;13.90;99.90;;;12.76;100.00;100279.31;4966277;28;20669;-78
2023/08/30 03:51:55;;;;;;;26.48;16.45;;;13.80;99.90;;;12.72;100.00;100269.88;4964090;28;20043;-77
2023/08/30 03:54:21;;;;;;;33.95;17.70;;;13.80;99.90;;;12.74;100.00;100278.56;4960717;28;20038;-77
2023/08/30 03:56:47;;;;;;;35.53;19.33;;;13.80;99.90;;;12.78;100.00;100274.78;4948833;28;20034;-77
2023/08/30 03:59:13;;;;;;;51.80;22.65;;;13.90;99.90;;;12.81;100.00;100277.25;4964042;28;20121;-77
2023/08/30 04:01:39;;;;;;;45.70;22.13;;;13.90;99.90;;;12.83;100.00;100282.41;4963762;28;20105;-77
2023/08/30 04:04:05;;;;;;;45.50;22.80;;;13.90;99.90;;;12.82;100.00;100286.88;4961700;28;20121;-78
2023/08/30 04:06:31;;;;;;;49.30;22.67;;;13.90;99.90;;;12.78;100.00;100293.28;4962963;28;20042;-77
2023/08/30 04:08:57;;;;;;;54.40;23.27;;;13.90;99.90;;;12.82;100.00;100302.72;4962595;28;20056;-75
2023/08/30 04:11:23;;;;;;;54.33;23.92;;;13.90;99.90;;;12.86;100.00;100313.94;4954422;28;20073;-77
2023/08/30 04:13:49;;;;;;;42.67;22.67;;;13.90;99.90;;;12.87;100.00;100311.22;4964871;28;20034;-77
2023/08/30 04:16:15;;;;;;;48.47;22.35;;;14.00;99.90;;;12.95;100.00;100309.88;4967500;28;20124;-77
2023/08/30 04:18:40;;;;;;;42.90;22.30;;;14.00;99.90;;;12.99;100.00;100314.88;4964542;28;20045;-77
2023/08/30 04:21:08;;;;;;;44.50;22.52;;;14.00;99.90;;;13.06;100.00;100315.34;4965789;28;20027;-76
2023/08/30 04:23:34;;;;;;;44.20;24.55;;;14.10;99.90;;;13.12;100.00;100326.34;4966728;28;20031;-77
2023/08/30 04:26:00;;;;;;;36.05;20.55;;;14.10;99.90;;;13.17;100.00;100328.72;4965579;28;20118;-76
2023/08/30 04:28:29;;;;;;;57.20;27.38;;;14.10;99.90;;;13.21;100.00;100324.09;4953714;28;20046;-76
2023/08/30 04:30:56;;;;;;;34.55;21.38;;;14.20;99.90;;;13.23;100.00;100317.75;4964306;28;20030;-77
2023/08/30 04:33:23;;;;;;;43.42;25.13;;;14.20;99.90;;;13.29;100.00;100321.84;4961598;28;20031;-77
2023/08/30 04:35:53;;;;;;;35.90;20.52;;;14.30;99.90;;;13.34;100.00;100323.22;4948885;28;20029;-77
2023/08/30 04:38:20;;;;;;;42.17;22.33;;;14.30;99.90;;;13.38;100.00;100326.53;4963606;28;20034;-77
2023/08/30 04:40:47;;;;;;;36.00;19.67;;;14.30;99.90;;;13.43;100.00;100315.63;4946635;28;20034;-77
2023/08/30 04:43:13;;;;;;;36.65;19.63;;;14.40;99.90;;;13.47;100.00;100315.34;4985811;28;20108;-76
2023/08/30 04:45:39;;;;;;;33.35;19.70;;;14.40;99.90;;;13.52;100.00;100323.84;4965258;28;20038;-77
2023/08/30 04:48:07;;;;;;;45.75;21.95;;;14.50;99.90;;;13.56;100.00;100332.41;4965127;28;20101;-77
2023/08/30 04:50:32;;;;;;;44.05;22.67;;;14.50;99.90;;;13.61;100.00;100332.13;4948966;28;20034;-77
2023/08/30 04:52:58;;;;;;;33.90;21.15;;;14.50;99.90;;;13.64;100.00;100330.09;4963464;28;20026;-77
2023/08/30 04:55:25;;;;;;;38.40;22.20;;;14.60;99.90;;;13.68;100.00;100331.59;4951705;28;20064;-77
2023/08/30 04:57:51;;;;;;;56.13;26.08;;;14.60;99.90;;;13.70;100.00;100327.06;4963565;28;20039;-76
2023/08/30 05:00:18;;;;;;;60.25;26.95;;;14.60;99.90;;;13.72;100.00;100325.16;4949309;28;20045;-76
2023/08/30 05:02:46;;;;;;;64.30;28.55;;;14.70;99.90;;;13.71;100.00;100320.84;4965018;28;20035;-77
2023/08/30 05:05:13;;;;;;;56.50;26.65;;;14.60;99.90;;;13.69;100.00;100314.81;4963712;28;20027;-77
2023/08/30 05:07:39;;;;;;;62.58;27.70;;;14.60;99.90;;;13.66;100.00;100319.44;4964444;28;20030;-77
2023/08/30 05:10:06;;;;;;;62.75;29.67;;;14.60;99.90;;;13.67;100.00;100321.13;4965027;28;20700;-76
2023/08/30 05:12:34;;;;;;;70.13;29.23;;;14.60;99.90;;;13.71;100.00;100322.63;4951704;28;20023;-77
2023/08/30 05:15:00;;;;;;;58.13;29.58;;;14.70;99.90;;;13.74;100.00;100311.84;4970661;28;20026;-76
2023/08/30 05:17:28;;;;;;;61.67;29.15;;;14.70;99.90;;;13.72;100.00;100308.44;4962464;28;20043;-75
2023/08/30 05:19:54;;;;;;;65.78;28.30;;;14.70;99.90;;;13.77;100.00;100310.78;4947951;28;20439;-78
2023/08/30 05:22:20;;;;;;;59.25;29.00;;;14.70;99.90;;;13.78;100.00;100309.81;4962900;28;20039;-77
2023/08/30 05:24:46;;;;;;;55.63;27.90;;;14.70;99.90;;;13.82;100.00;100314.84;4962004;28;20404;-77
2023/08/30 05:27:12;;;;;;;51.83;27.20;;;14.80;99.90;;;13.86;100.00;100307.53;4962850;28;20046;-77
2023/08/30 05:29:38;;;;;;;54.40;27.75;;;14.80;99.90;;;13.90;100.00;100311.66;4962687;28;20035;-77
2023/08/30 05:32:05;;;;;;;60.17;29.25;;;14.90;99.90;;;13.98;100.00;100303.22;4946717;28;20022;-78
2023/08/30 05:34:31;;;;;;;53.17;28.38;;;14.90;99.90;;;14.02;100.00;100304.72;4948774;28;20570;-77
2023/08/30 05:36:56;;;;;;;59.22;29.00;;;15.00;99.90;;;14.08;100.00;100314.84;4965427;28;20044;-77
2023/08/30 05:39:25;;;;;;;63.75;28.52;;;15.00;99.90;;;14.14;100.00;100317.94;4961957;28;20034;-77
2023/08/30 05:41:50;;;;;;;60.67;28.85;;;15.00;99.90;;;14.24;100.00;100314.69;4963424;28;20043;-77
2023/08/30 05:44:16;;;;;;;63.30;30.15;;;15.20;99.90;;;14.34;100.00;100321.00;4964824;28;20455;-77
2023/08/30 05:46:42;;;;;;;65.50;29.90;;;15.20;99.90;;;14.44;100.00;100319.44;4967756;28;20050;-77
2023/08/30 05:49:08;;;;;;;68.15;30.40;;;15.30;99.90;;;14.54;100.00;100320.50;4965664;28;20069;-77
2023/08/30 05:51:33;;;;;;;62.00;28.98;;;15.40;99.90;;;14.63;100.00;100320.84;4963646;28;20488;-77
2023/08/30 05:54:00;;;;;;;60.05;28.98;;;15.50;99.90;;;14.75;100.00;100326.16;4961718;28;20069;-77
2023/08/30 05:56:25;;;;;;;62.72;29.88;;;15.60;99.90;;;14.85;100.00;100323.66;4963938;28;20492;-77
2023/08/30 05:58:54;;;;;;;57.85;29.50;;;15.70;99.90;;;14.98;100.00;100327.13;4952283;28;20070;-77
2023/08/30 06:01:20;;;;;;;56.08;28.52;;;15.80;99.90;;;15.10;100.00;100321.94;4963058;28;20038;-75
2023/08/30 06:03:46;;;;;;;55.42;28.65;;;15.90;99.90;;;15.19;100.00;100326.56;4961976;28;20031;-77
2023/08/30 06:06:13;;;;;;;53.92;26.30;;;16.00;99.90;;;15.33;100.00;100334.38;4959171;28;20560;-77
2023/08/30 06:08:38;;;;;;;55.22;28.58;;;16.20;99.90;;;15.50;100.00;100329.63;4979258;28;20125;-77
2023/08/30 06:11:04;;;;;;;55.13;28.00;;;16.30;99.90;;;15.65;100.00;100322.34;4964763;28;20110;-77
2023/08/30 06:13:30;;;;;;;48.83;25.73;;;16.40;99.90;;;15.76;100.00;100335.69;4959811;28;20031;-77
2023/08/30 06:15:56;;;;;;;46.70;25.58;;;16.50;99.90;;;15.79;100.00;100333.66;4951797;28;20725;-77
2023/08/30 06:18:24;;;;;;;43.22;25.00;;;16.60;99.90;;;15.90;100.00;100337.34;4964513;28;20086;-76
2023/08/30 06:20:50;;;;;;;50.72;27.50;;;16.70;99.90;;;16.06;100.00;100324.56;4952568;28;20027;-76
2023/08/30 06:23:20;;;;;;;51.85;26.63;;;16.80;99.90;;;16.22;100.00;100334.03;4965336;28;20036;-77
2023/08/30 06:25:53;;;;;;;47.70;26.13;;;16.90;99.90;;;16.33;100.00;100334.06;4971089;28;20568;-77
2023/08/30 06:28:19;;;;;;;50.10;26.85;;;17.10;99.90;;;16.49;100.00;100339.88;4948190;28;20170;-77
2023/08/30 06:30:45;;;;;;;48.05;25.33;;;17.20;99.90;;;16.61;100.00;100333.63;4965737;28;20465;-77
2023/08/30 06:33:11;;;;;;;45.03;24.35;;;17.30;99.90;;;16.74;100.00;100345.97;4964370;28;20772;-76
2023/08/30 06:35:41;;;;;;;42.00;23.77;;;17.40;99.90;;;16.81;100.00;100347.19;4952195;28;20125;-78
2023/08/30 06:38:06;;;;;;;45.10;23.95;;;17.50;99.90;;;16.86;100.00;100347.66;4964454;28;20034;-77
2023/08/30 06:40:33;;;;;;;36.08;22.77;;;17.60;99.90;;;16.93;100.00;100340.03;4955153;28;20038;-77
2023/08/30 06:42:59;;;;;;;43.15;24.48;;;17.60;99.90;;;16.98;100.00;100341.38;4983152;28;20035;-77
2023/08/30 06:45:25;;;;;;;44.10;22.75;;;17.70;99.90;;;17.04;100.00;100344.50;4954808;28;20033;-77
2023/08/30 06:47:52;;;;;;;36.40;20.98;;;17.70;99.90;;;17.01;100.00;100345.59;4965264;28;20491;-77
2023/08/30 06:50:18;;;;;;;35.72;21.20;;;17.70;99.90;;;17.00;100.00;100338.59;4966018;28;20037;-77
2023/08/30 06:52:44;;;;;;;33.53;19.92;;;17.80;99.90;;;16.98;100.00;100344.03;4964893;28;20035;-77
2023/08/30 06:55:10;;;;;;;34.42;22.15;;;17.70;99.90;;;16.99;100.00;100335.09;4963818;28;20042;-77
2023/08/30 06:57:35;;;;;;;31.17;20.92;;;17.70;99.90;;;17.02;100.00;100340.16;4965299;28;20100;-77
2023/08/30 07:00:07;;;;;;;36.72;20.85;;;17.80;99.90;;;17.09;100.00;100337.03;4965060;28;20062;-77
2023/08/30 07:02:37;;;;;;;31.65;20.77;;;17.90;99.90;;;17.14;100.00;100330.34;4966102;28;20448;-77
2023/08/30 07:05:04;;;;;;;25.17;18.42;;;17.90;99.90;;;17.15;100.00;100339.19;4966031;28;20563;-76
2023/08/30 07:07:31;;;;;;;29.88;20.00;;;17.90;99.90;;;17.18;100.00;100342.44;4965851;28;20039;-76
2023/08/30 07:09:57;;;;;;;29.58;17.63;;;17.90;99.90;;;17.16;100.00;100346.19;4964390;28;20022;-76
2023/08/30 07:12:23;;;;;;;28.30;17.95;;;18.00;99.90;;;17.31;100.00;100336.97;4964229;28;20026;-76
2023/08/30 07:14:49;;;;;;;34.72;19.17;;;18.00;99.90;;;17.36;100.00;100347.25;4963608;28;20027;-77
2023/08/30 07:17:15;;;;;;;29.25;19.55;;;18.10;99.90;;;17.52;100.00;100347.69;4965882;28;21252;-76
2023/08/30 07:19:40;;;;;;;26.42;17.95;;;18.20;99.90;;;17.82;100.00;100352.34;4977623;28;20651;-76
2023/08/30 07:22:06;;;;;;;30.38;18.90;;;18.40;99.90;;;18.09;98.40;100350.16;4968028;28;20109;-77
2023/08/30 07:24:32;;;;;;;26.98;17.60;;;18.70;99.90;;;18.59;96.87;100353.84;4981265;28;21291;-77
2023/08/30 07:26:57;;;;;;;23.83;16.67;;;19.10;99.90;;;19.09;94.06;100354.94;4961591;28;20519;-77
2023/08/30 07:29:23;;;;;;;22.08;17.20;;;19.60;99.90;;;19.63;91.54;100361.66;4963686;28;20026;-77
2023/08/30 07:31:51;;;;;;;25.15;17.25;;;19.90;99.90;;;19.91;88.00;100356.50;4948109;28;20030;-77
2023/08/30 07:34:17;;;;;;;21.58;16.50;;;20.20;99.90;;;20.18;86.89;100359.28;4967251;28;20035;-77
2023/08/30 07:36:42;;;;;;;27.48;16.27;;;20.50;99.90;;;20.53;85.96;100360.50;4968212;28;20105;-77
2023/08/30 07:39:09;;;;;;;25.10;16.73;;;20.80;99.90;;;20.89;83.68;100361.53;4964158;28;20159;-77
2023/08/30 07:41:35;;;;;;;15.55;12.68;;;21.10;99.90;;;21.24;80.85;100359.13;4963870;28;20029;-77
2023/08/30 07:44:01;;;;;;;21.52;13.68;;;21.40;99.90;;;21.48;78.49;100358.56;4962676;28;20038;-77
2023/08/30 07:46:27;;;;;;;15.85;12.35;;;21.80;99.90;;;21.76;77.21;100355.84;4954416;28;20026;-77
2023/08/30 07:48:52;;;;;;;18.85;12.40;;;21.90;99.90;;;22.01;75.66;100368.47;4953620;28;20592;-77
2023/08/30 07:51:18;;;;;;;14.48;11.95;;;22.30;99.90;;;22.47;75.44;100371.88;4951947;28;20073;-77
2023/08/30 07:53:44;;;;;;;12.52;10.48;;;22.60;99.90;;;22.40;73.65;100376.19;4982823;28;20728;-77
2023/08/30 07:56:09;;;;;;;16.13;12.10;;;22.80;99.90;;;22.63;73.11;100376.47;4971306;28;20033;-77
2023/08/30 07:58:35;;;;;;;16.88;11.18;;;22.80;99.90;;;22.33;73.74;100380.47;4962881;28;20065;-77
2023/08/30 08:01:01;;;;;;;17.15;11.32;;;22.80;99.90;;;22.20;73.83;100391.59;4964281;28;20027;-77
2023/08/30 08:03:26;;;;;;;15.70;11.05;;;22.60;99.90;;;22.10;73.78;100378.25;4949499;28;20026;-77
2023/08/30 08:05:52;;;;;;;15.60;10.35;;;22.50;99.90;;;21.99;73.38;100380.34;4982542;28;20030;-77
2023/08/30 08:08:18;;;;;;;11.55;8.10;;;22.40;99.90;;;21.83;73.05;100381.84;4954858;28;20295;-77
2023/08/30 08:10:44;;;;;;;13.88;9.32;;;22.40;99.90;;;21.73;73.21;100381.13;4954765;28;20022;-77
2023/08/30 08:13:10;;;;;;;12.68;9.23;;;22.20;99.90;;;21.66;72.52;100374.66;4964345;28;20026;-76
2023/08/30 08:15:35;;;;;;;11.65;8.70;;;22.40;99.90;;;22.29;72.33;100382.66;4979729;28;20084;-77
2023/08/30 08:18:04;;;;;;;9.68;7.80;;;22.70;99.90;;;22.74;70.00;100380.75;4951894;28;20054;-77
2023/08/30 08:20:30;;;;;;;11.70;4.22;;;23.20;99.90;;;23.52;68.53;100390.50;4962409;28;20034;-77
2023/08/30 08:22:56;;;;;;;5.30;2.80;;;23.70;99.90;;;23.78;66.10;100398.53;4949164;28;20460;-77
2023/08/30 08:25:23;;;;;;;6.88;3.63;;;24.00;99.90;;;23.54;66.30;100394.72;4948607;28;20046;-77
2023/08/30 08:27:50;;;;;;;8.23;4.47;;;24.00;99.90;;;23.49;66.08;100398.91;4964732;28;20022;-77
2023/08/30 08:30:16;;;;;;;8.55;3.97;;;24.00;99.90;;;23.52;65.86;100399.44;4967022;28;20027;-77
2023/08/30 08:32:42;;;;;;;7.38;4.30;;;24.00;99.90;;;23.64;66.28;100401.81;4954959;28;20023;-78
2023/08/30 08:35:08;;;;;;;8.50;3.55;;;24.10;99.90;;;23.63;64.72;100406.34;4959963;28;20042;-77
2023/08/30 08:37:34;;;;;;;6.30;3.17;;;24.10;99.90;;;23.73;64.25;100408.88;4962178;28;20030;-78
2023/08/30 08:40:03;;;;;;;8.15;4.10;;;24.20;99.90;;;23.83;64.38;100404.22;4962085;28;20424;-77
2023/08/30 08:42:29;;;;;;;8.40;2.75;;;24.20;99.90;;;23.75;63.43;100399.66;4963813;28;20041;-77
2023/08/30 08:44:58;;;;;;;4.30;2.83;;;24.20;99.90;;;23.82;63.94;100399.84;4952710;28;20035;-77
2023/08/30 08:47:24;;;;;;;5.15;2.60;;;24.20;99.90;;;23.66;63.83;100399.78;4963208;28;20177;-78
2023/08/30 08:49:54;;;;;;;6.55;2.45;;;24.20;99.90;;;23.62;63.98;100404.66;4950988;28;20062;-78
2023/08/30 08:52:20;;;;;;;3.22;2.10;;;24.10;99.90;;;23.66;64.35;100406.00;4964073;28;20038;-77
2023/08/30 08:54:46;;;;;;;3.92;2.35;;;24.00;99.90;;;23.46;62.84;100404.63;4962833;28;20068;-77
2023/08/30 08:57:12;;;;;;;2.97;1.67;;;23.90;99.90;;;23.19;64.00;100408.38;4953419;28;20452;-77
2023/08/30 08:59:38;;;;;;;2.35;1.20;;;23.80;99.90;;;23.12;63.31;100403.63;4965307;28;20030;-77
2023/08/30 09:02:04;;;;;;;2.20;1.38;;;23.70;99.90;;;23.21;63.22;100417.09;4959064;28;20038;-77
2023/08/30 09:04:39;;;;;;;5.47;1.40;;;23.70;99.90;;;23.40;62.70;100419.53;4962596;28;20038;-78
2023/08/30 09:07:04;;;;;;;4.90;1.60;;;23.80;99.90;;;23.70;61.68;100417.28;4971403;28;20042;-78
2023/08/30 09:09:39;;;;;;;3.30;1.50;;;24.00;99.90;;;23.74;62.81;100415.94;4980987;28;20027;-77
2023/08/30 09:12:08;;;;;;;4.22;1.80;;;24.10;99.90;;;23.64;62.11;100420.63;4961069;28;20039;-77
2023/08/30 09:14:37;;;;;;;2.97;1.55;;;24.00;99.90;;;23.58;61.38;100414.03;4961811;28;20031;-78
2023/08/30 09:17:03;;;;;;;4.30;1.60;;;24.00;99.90;;;23.32;60.42;100409.59;4968350;28;20045;-77
2023/08/30 09:19:30;;;;;;;4.78;1.38;;;23.80;99.90;;;23.10;61.60;100408.31;4952540;28;20042;-78
2023/08/30 09:21:59;;;;;;;3.88;1.40;;;23.80;99.90;;;23.22;60.56;100418.78;4950913;28;20618;-77
2023/08/30 09:24:25;;;;;;;3.88;1.10;;;23.80;99.90;;;23.25;60.12;100416.63;4951590;28;20045;-77
2023/08/30 09:26:55;;;;;;;3.55;1.10;;;23.70;99.90;;;23.14;58.14;100423.13;4962810;28;20516;-77
2023/08/30 09:29:25;;;;;;;3.90;1.30;;;23.80;99.90;;;23.51;61.21;100416.53;4959240;28;20125;-77
2023/08/30 09:31:53;;;;;;;5.65;1.40;;;24.00;99.90;;;23.73;60.06;100422.31;4965553;28;20452;-78
2023/08/30 09:34:26;;;;;;;3.75;1.25;;;24.10;99.90;;;23.73;59.52;100420.47;4962402;28;20378;-78
2023/08/30 09:36:55;;;;;;;2.35;1.17;;;24.20;99.90;;;23.74;59.05;100424.84;4962795;28;20109;-77
2023/08/30 09:39:26;;;;;;;4.53;1.20;;;24.20;99.90;;;23.84;59.43;100416.66;4952375;28;20571;-78
2023/08/30 09:41:55;;;;;;;4.47;1.10;;;24.10;99.90;;;23.55;58.17;100412.53;4981295;28;20404;-78
2023/08/30 09:44:22;;;;;;;2.70;1.20;;;24.10;99.90;;;23.46;57.25;100416.19;4953554;28;20038;-77
2023/08/30 09:46:55;;;;;;;5.57;1.50;;;24.00;99.90;;;23.59;58.69;100414.91;4962218;28;20504;-77
2023/08/30 09:49:22;;;;;;;5.50;1.50;;;24.10;99.90;;;23.62;57.48;100415.41;4954831;28;20049;-78
2023/08/30 09:51:56;;;;;;;5.82;1.40;;;24.10;99.90;;;23.66;57.34;100421.28;4952974;28;20584;-77
2023/08/30 09:54:32;;;;;;;2.90;1.52;;;24.10;99.90;;;23.50;59.28;100405.97;4961622;28;20445;-77
2023/08/30 09:57:02;;;;;;;3.78;1.63;;;24.10;99.90;;;23.62;58.96;100412.72;4963027;28;20077;-77
2023/08/30 09:59:28;;;;;;;3.42;1.75;;;24.20;99.90;;;23.78;57.93;100425.41;4950226;28;20043;-77